createdAt,value
2022-12-03T00:00:57.576Z,89.97
2022-12-03T00:03:20.458Z,90.11
2022-12-03T00:05:48.706Z,90.18
2022-12-03T00:08:12.120Z,90.27
2022-12-03T00:10:35.405Z,90.23
2022-12-03T00:12:57.973Z,89.85
2022-12-03T00:15:20.627Z,89.92
2022-12-03T00:17:43.372Z,90.24
2022-12-03T00:20:08.048Z,90.37
2022-12-03T00:22:30.631Z,90.06
2022-12-03T00:24:53.498Z,89.57
2022-12-03T00:27:16.324Z,89.53
2022-12-03T00:29:39.403Z,89.61
2022-12-03T00:32:01.985Z,90.11
2022-12-03T00:34:24.530Z,90.29
2022-12-03T00:36:47.040Z,90.26
2022-12-03T00:39:09.783Z,90.35
2022-12-03T00:41:32.247Z,90.23
2022-12-03T00:43:57.685Z,89.89
2022-12-03T00:46:21.769Z,89.95
2022-12-03T00:48:46.531Z,89.86
2022-12-03T00:51:09.138Z,89.62
2022-12-03T00:53:31.741Z,89.81
2022-12-03T00:55:54.337Z,89.71
2022-12-03T00:58:17.852Z,89.74
2022-12-03T01:00:40.464Z,90.12
2022-12-03T01:03:03.859Z,90.00
2022-12-03T01:05:26.512Z,89.96
2022-12-03T01:07:49.376Z,89.93
2022-12-03T01:10:12.656Z,89.84
2022-12-03T01:12:35.225Z,90.18
2022-12-03T01:14:57.758Z,90.10
2022-12-03T01:17:20.335Z,90.07
2022-12-03T01:19:48.043Z,89.90
2022-12-03T01:22:11.156Z,89.67
2022-12-03T01:24:34.098Z,89.73
2022-12-03T01:26:57.677Z,90.01
2022-12-03T01:29:20.215Z,90.03
2022-12-03T01:32:03.379Z,90.16
2022-12-03T01:34:26.156Z,90.47
2022-12-03T01:36:48.760Z,90.35
2022-12-03T01:39:11.463Z,90.33
2022-12-03T01:41:35.322Z,90.23
2022-12-03T01:43:59.387Z,90.28
2022-12-03T01:46:25.224Z,90.22
2022-12-03T01:48:50.646Z,90.32
2022-12-03T01:51:15.296Z,90.20
2022-12-03T01:53:37.840Z,90.11
2022-12-03T01:56:02.002Z,90.14
2022-12-03T01:58:27.137Z,90.22
2022-12-03T02:00:49.739Z,90.05
2022-12-03T02:03:22.825Z,90.18
2022-12-03T02:05:45.852Z,90.06
2022-12-03T02:08:27.001Z,89.47
2022-12-03T02:10:49.682Z,89.41
2022-12-03T02:13:12.237Z,89.34
2022-12-03T02:15:36.375Z,89.04
2022-12-03T02:18:00.045Z,88.82
2022-12-03T02:20:22.999Z,89.01
2022-12-03T02:22:57.518Z,89.17
2022-12-03T02:25:26.056Z,89.23
2022-12-03T02:27:49.959Z,89.07
2022-12-03T02:30:14.835Z,89.05
2022-12-03T02:32:37.697Z,89.07
2022-12-03T02:35:00.305Z,89.18
2022-12-03T02:37:29.993Z,88.83
2022-12-03T02:39:56.934Z,89.13
2022-12-03T02:42:35.897Z,89.36
2022-12-03T02:45:05.464Z,89.53
2022-12-03T02:47:29.716Z,89.50
2022-12-03T02:49:52.717Z,89.34
2022-12-03T02:52:15.322Z,89.22
2022-12-03T02:54:38.146Z,89.44
2022-12-03T02:57:00.737Z,89.64
2022-12-03T02:59:23.384Z,89.92
2022-12-03T03:01:46.088Z,89.80
2022-12-03T03:04:08.979Z,89.66
2022-12-03T03:06:31.619Z,89.43
2022-12-03T03:08:54.319Z,89.18
2022-12-03T03:11:17.104Z,88.96
2022-12-03T03:13:39.943Z,88.70
2022-12-03T03:16:04.202Z,88.79
2022-12-03T03:18:26.967Z,88.73
2022-12-03T03:20:50.365Z,88.76
2022-12-03T03:23:14.369Z,88.88
2022-12-03T03:25:38.912Z,88.92
2022-12-03T03:28:02.215Z,88.56
2022-12-03T03:30:25.001Z,88.87
2022-12-03T03:32:47.741Z,89.00
2022-12-03T03:35:11.829Z,89.21
2022-12-03T03:37:35.199Z,89.20
2022-12-03T03:39:57.949Z,89.21
2022-12-03T03:42:20.795Z,89.04
2022-12-03T03:44:43.539Z,89.29
2022-12-03T03:47:06.738Z,89.51
2022-12-03T03:49:29.561Z,89.67
2022-12-03T03:51:52.204Z,89.53
2022-12-03T03:54:15.323Z,89.35
2022-12-03T03:56:38.234Z,89.32
2022-12-03T03:59:02.011Z,89.49
2022-12-03T04:01:25.181Z,89.64
2022-12-03T04:03:47.916Z,89.70
2022-12-03T04:06:11.209Z,89.52
2022-12-03T04:08:33.879Z,89.75
2022-12-03T04:11:15.359Z,89.53
2022-12-03T04:13:38.054Z,89.36
2022-12-03T04:16:00.701Z,89.66
2022-12-03T04:18:41.508Z,89.54
2022-12-03T04:21:23.076Z,89.62
2022-12-03T04:23:45.761Z,89.75
2022-12-03T04:26:27.294Z,89.84
2022-12-03T04:28:49.926Z,89.96
2022-12-03T04:31:31.259Z,90.29
2022-12-03T04:34:12.945Z,90.32
2022-12-03T04:36:35.640Z,90.19
2022-12-03T04:38:58.232Z,90.42
2022-12-03T04:41:20.797Z,90.36
2022-12-03T04:44:01.797Z,90.46
2022-12-03T04:46:24.397Z,90.72
2022-12-03T04:48:47.145Z,90.95
2022-12-03T04:51:09.722Z,90.73
2022-12-03T04:53:33.142Z,90.92
2022-12-03T04:55:57.921Z,91.08
2022-12-03T04:58:20.531Z,91.18
2022-12-03T05:00:43.240Z,91.26
2022-12-03T05:03:05.844Z,91.74
2022-12-03T05:05:28.538Z,92.04
2022-12-03T05:07:51.156Z,91.95
2022-12-03T05:10:13.808Z,91.87
2022-12-03T05:12:36.795Z,91.85
2022-12-03T05:14:59.598Z,91.71
2022-12-03T05:17:22.235Z,91.75
2022-12-03T05:20:03.196Z,91.67
2022-12-03T05:22:25.868Z,91.58
2022-12-03T05:24:48.389Z,91.61
2022-12-03T05:27:11.007Z,91.44
2022-12-03T05:29:34.022Z,91.28
2022-12-03T05:31:56.554Z,91.30
2022-12-03T05:34:19.020Z,91.16
2022-12-03T05:36:41.548Z,91.29
2022-12-03T05:39:04.123Z,91.28
2022-12-03T05:41:45.534Z,91.49
2022-12-03T05:44:08.152Z,91.60
2022-12-03T05:46:30.872Z,91.76
2022-12-03T05:48:54.480Z,91.85
2022-12-03T05:51:17.095Z,91.85
2022-12-03T05:53:39.670Z,91.90
2022-12-03T05:56:02.250Z,91.81
2022-12-03T05:58:24.848Z,92.06
2022-12-03T06:00:47.370Z,91.97
2022-12-03T06:03:10.749Z,91.84
2022-12-03T06:05:34.298Z,91.76
2022-12-03T06:07:57.037Z,91.62
2022-12-03T06:10:23.469Z,91.40
2022-12-03T06:12:46.477Z,91.54
2022-12-03T06:15:10.899Z,91.56
2022-12-03T06:17:33.755Z,91.50
2022-12-03T06:19:56.405Z,91.14
2022-12-03T06:22:19.303Z,90.94
2022-12-03T06:24:41.853Z,90.98
2022-12-03T06:27:04.639Z,90.64
2022-12-03T06:29:27.403Z,90.72
2022-12-03T06:31:49.986Z,90.82
2022-12-03T06:34:12.563Z,90.52
2022-12-03T06:36:35.226Z,90.65
2022-12-03T06:38:57.830Z,90.85
2022-12-03T06:41:20.678Z,90.78
2022-12-03T06:43:43.248Z,90.38
2022-12-03T06:46:26.654Z,90.46
2022-12-03T06:48:49.333Z,90.26
2022-12-03T06:51:12.185Z,90.06
2022-12-03T06:53:34.713Z,89.77
2022-12-03T06:55:57.312Z,89.89
2022-12-03T06:58:20.173Z,89.96
2022-12-03T07:00:42.844Z,89.58
2022-12-03T07:03:06.364Z,89.65
2022-12-03T07:05:29.081Z,89.67
2022-12-03T07:07:52.479Z,89.37
2022-12-03T07:10:15.275Z,89.43
2022-12-03T07:12:38.063Z,89.01
2022-12-03T07:15:00.588Z,88.37
2022-12-03T07:17:26.056Z,88.73
2022-12-03T07:19:48.661Z,89.09
2022-12-03T07:22:11.386Z,89.20
2022-12-03T07:24:33.925Z,89.40
2022-12-03T07:26:56.474Z,89.26
2022-12-03T07:29:19.145Z,89.34
2022-12-03T07:31:41.929Z,89.31
2022-12-03T07:34:04.652Z,89.43
2022-12-03T07:36:27.233Z,89.20
2022-12-03T07:38:49.816Z,88.91
2022-12-03T07:41:13.950Z,88.51
2022-12-03T07:43:36.537Z,88.41
2022-12-03T07:45:59.108Z,88.50
2022-12-03T07:48:21.863Z,87.89
2022-12-03T07:50:44.510Z,87.79
2022-12-03T07:53:07.330Z,87.32
2022-12-03T07:55:30.527Z,87.81
2022-12-03T07:57:53.345Z,87.84
2022-12-03T08:00:16.397Z,87.81
2022-12-03T08:02:39.005Z,88.12
2022-12-03T08:05:01.737Z,87.36
2022-12-03T08:07:24.607Z,87.92
2022-12-03T08:09:47.506Z,87.81
2022-12-03T08:12:40.144Z,87.77
2022-12-03T08:15:10.007Z,87.91
2022-12-03T08:17:32.589Z,88.58
2022-12-03T08:19:55.256Z,88.41
2022-12-03T08:22:17.892Z,88.50
2022-12-03T08:24:40.866Z,88.70
2022-12-03T08:27:13.881Z,88.97
2022-12-03T08:29:36.609Z,88.92
2022-12-03T08:31:59.149Z,88.88
2022-12-03T08:34:24.442Z,89.03
2022-12-03T08:36:52.214Z,88.64
2022-12-03T08:39:29.209Z,88.71
2022-12-03T08:42:18.122Z,88.57
2022-12-03T08:44:43.584Z,88.50
2022-12-03T08:47:08.899Z,88.43
2022-12-03T08:49:31.917Z,88.11
2022-12-03T08:51:59.259Z,88.07
2022-12-03T08:54:22.149Z,88.07
2022-12-03T08:56:44.975Z,87.91
2022-12-03T08:59:31.073Z,87.90
2022-12-03T09:01:55.146Z,87.89
2022-12-03T09:04:41.717Z,87.29
2022-12-03T09:07:04.663Z,86.98
2022-12-03T09:09:27.664Z,87.16
2022-12-03T09:11:51.489Z,87.66
2022-12-03T09:14:18.449Z,87.32
2022-12-03T09:16:41.675Z,87.04
2022-12-03T09:19:04.841Z,87.25
2022-12-03T09:21:27.556Z,87.36
2022-12-03T09:23:52.996Z,87.36
2022-12-03T09:26:15.566Z,87.14
2022-12-03T09:28:38.403Z,87.29
2022-12-03T09:31:01.115Z,87.54
2022-12-03T09:33:23.845Z,86.62
2022-12-03T09:35:46.506Z,86.78
2022-12-03T09:38:09.103Z,86.08
2022-12-03T09:40:32.288Z,86.07
2022-12-03T09:42:58.588Z,85.77
2022-12-03T09:45:21.272Z,86.09
2022-12-03T09:47:46.347Z,85.82
2022-12-03T09:50:13.903Z,85.59
2022-12-03T09:52:36.584Z,85.10
2022-12-03T09:55:12.044Z,84.67
2022-12-03T09:57:34.797Z,84.88
2022-12-03T09:59:58.056Z,85.36
2022-12-03T10:02:30.808Z,85.59
2022-12-03T10:04:53.962Z,85.38
2022-12-03T10:07:17.121Z,85.05
2022-12-03T10:09:39.938Z,86.04
2022-12-03T10:12:02.600Z,86.32
2022-12-03T10:14:25.554Z,86.15
2022-12-03T10:16:48.857Z,86.11
2022-12-03T10:19:39.658Z,86.55
2022-12-03T10:22:02.289Z,86.91
2022-12-03T10:24:31.432Z,87.18
2022-12-03T10:26:56.593Z,87.17
2022-12-03T10:29:33.168Z,87.12
2022-12-03T10:32:02.434Z,87.10
2022-12-03T10:34:33.076Z,87.11
2022-12-03T10:37:13.041Z,86.88
2022-12-03T10:39:56.120Z,87.20
2022-12-03T10:42:19.792Z,86.81
2022-12-03T10:44:42.387Z,86.33
2022-12-03T10:47:12.003Z,85.92
2022-12-03T10:49:34.999Z,86.36
2022-12-03T10:51:57.778Z,85.76
2022-12-03T10:54:23.237Z,85.81
2022-12-03T10:56:47.487Z,85.97
2022-12-03T10:59:30.251Z,85.12
2022-12-03T11:01:53.098Z,85.63
2022-12-03T11:04:21.156Z,83.94
2022-12-03T11:06:43.825Z,83.64
2022-12-03T11:09:18.744Z,83.68
2022-12-03T11:11:41.412Z,84.32
2022-12-03T11:14:04.736Z,84.33
2022-12-03T11:16:39.316Z,84.20
2022-12-03T11:19:02.569Z,85.19
2022-12-03T11:21:25.635Z,83.98
2022-12-03T11:23:49.700Z,83.57
2022-12-03T11:26:30.985Z,83.62
2022-12-03T11:28:55.034Z,83.37
2022-12-03T11:31:43.897Z,83.44
2022-12-03T11:34:18.633Z,83.95
2022-12-03T11:37:10.350Z,84.35
2022-12-03T11:39:45.168Z,84.21
2022-12-03T11:42:28.661Z,83.60
2022-12-03T11:45:03.701Z,83.70
2022-12-03T11:47:27.444Z,83.42
2022-12-03T11:49:50.874Z,83.51
2022-12-03T11:52:26.267Z,83.89
2022-12-03T11:55:11.136Z,83.56
2022-12-03T11:57:37.139Z,82.65
2022-12-03T12:00:17.833Z,82.46
2022-12-03T12:02:40.613Z,82.19
2022-12-03T12:05:30.011Z,80.45
2022-12-03T12:07:53.671Z,79.49
2022-12-03T12:10:37.832Z,79.37
2022-12-03T12:13:02.454Z,79.30
2022-12-03T12:15:40.385Z,79.75
2022-12-03T12:18:40.297Z,80.18
2022-12-03T12:21:41.246Z,80.52
2022-12-03T12:24:40.175Z,80.50
2022-12-03T12:27:34.825Z,80.19
2022-12-03T12:30:00.408Z,80.39
2022-12-03T12:32:42.029Z,79.93
2022-12-03T12:35:24.175Z,79.49
2022-12-03T12:37:56.819Z,79.37
2022-12-03T12:40:26.940Z,79.24
2022-12-03T12:42:53.001Z,78.98
2022-12-03T12:45:18.319Z,78.74
2022-12-03T12:47:48.767Z,78.72
2022-12-03T12:50:12.215Z,78.94
2022-12-03T12:52:34.926Z,78.77
2022-12-03T12:55:03.192Z,79.07
2022-12-03T12:57:27.645Z,78.06
2022-12-03T12:59:51.164Z,78.42
2022-12-03T13:02:25.936Z,78.40
2022-12-03T13:04:48.714Z,78.16
2022-12-03T13:07:11.525Z,78.16
2022-12-03T13:09:34.417Z,78.20
2022-12-03T13:12:03.930Z,77.77
2022-12-03T13:14:31.456Z,78.43
2022-12-03T13:16:56.013Z,78.00
2022-12-03T13:19:25.949Z,78.02
2022-12-03T13:21:50.268Z,77.92
2022-12-03T13:24:32.840Z,78.19
2022-12-03T13:26:56.298Z,77.59
2022-12-03T13:29:20.848Z,78.03
2022-12-03T13:31:59.869Z,77.92
2022-12-03T13:34:25.166Z,78.08
2022-12-03T13:36:53.472Z,77.47
2022-12-03T13:39:27.137Z,77.76
2022-12-03T13:42:08.686Z,77.70
2022-12-03T13:44:32.473Z,77.59
2022-12-03T13:46:54.982Z,77.53
2022-12-03T13:49:23.694Z,77.55
2022-12-03T13:51:47.333Z,77.45
2022-12-03T13:54:15.990Z,77.74
2022-12-03T13:56:38.997Z,77.30
2022-12-03T13:59:02.028Z,77.61
2022-12-03T14:01:24.833Z,77.63
2022-12-03T14:03:47.635Z,77.56
2022-12-03T14:06:10.072Z,77.34
2022-12-03T14:08:32.865Z,78.12
2022-12-03T14:11:00.169Z,77.99
2022-12-03T14:13:23.293Z,78.30
2022-12-03T14:15:45.937Z,78.82
2022-12-03T14:18:08.572Z,78.97
2022-12-03T14:20:31.642Z,79.53
2022-12-03T14:22:59.260Z,79.77
2022-12-03T14:25:22.185Z,79.35
2022-12-03T14:27:44.653Z,79.53
2022-12-03T14:30:07.984Z,79.87
2022-12-03T14:32:30.556Z,80.23
2022-12-03T14:34:53.415Z,80.23
2022-12-03T14:37:16.196Z,80.53
2022-12-03T14:39:38.996Z,80.27
2022-12-03T14:42:13.421Z,80.70
2022-12-03T14:44:36.088Z,80.58
2022-12-03T14:46:58.657Z,80.83
2022-12-03T14:49:21.495Z,80.78
2022-12-03T14:51:44.340Z,80.88
2022-12-03T14:54:07.021Z,81.06
2022-12-03T14:56:29.611Z,80.92
2022-12-03T14:58:52.347Z,81.48
2022-12-03T15:01:15.224Z,81.52
2022-12-03T15:03:38.141Z,81.70
2022-12-03T15:06:00.750Z,81.81
2022-12-03T15:08:23.349Z,82.15
2022-12-03T15:10:46.012Z,82.41
2022-12-03T15:13:08.991Z,82.82
2022-12-03T15:15:35.004Z,82.97
2022-12-03T15:17:57.703Z,83.11
2022-12-03T15:20:20.276Z,83.23
2022-12-03T15:22:42.856Z,83.31
2022-12-03T15:25:07.655Z,83.43
2022-12-03T15:27:30.320Z,83.70
2022-12-03T15:29:53.362Z,84.03
2022-12-03T15:32:16.125Z,84.15
2022-12-03T15:34:38.773Z,84.37
2022-12-03T15:37:01.452Z,84.33
2022-12-03T15:39:24.188Z,84.49
2022-12-03T15:41:49.147Z,84.64
2022-12-03T15:44:11.717Z,84.62
2022-12-03T15:46:34.631Z,84.75
2022-12-03T15:48:57.824Z,84.99
2022-12-03T15:51:21.081Z,84.83
2022-12-03T15:53:43.672Z,85.00
2022-12-03T15:56:06.614Z,85.00
2022-12-03T15:58:29.188Z,85.18
2022-12-03T16:00:51.920Z,85.16
2022-12-03T16:03:14.825Z,85.16
2022-12-03T16:05:38.564Z,85.15
2022-12-03T16:08:02.063Z,85.26
2022-12-03T16:10:25.054Z,85.36
2022-12-03T16:12:49.258Z,85.48
2022-12-03T16:15:11.883Z,85.60
2022-12-03T16:17:34.537Z,85.59
2022-12-03T16:19:57.447Z,85.77
2022-12-03T16:22:20.181Z,85.63
2022-12-03T16:24:42.757Z,85.74
2022-12-03T16:27:05.506Z,85.72
2022-12-03T16:29:28.165Z,85.59
2022-12-03T16:31:50.864Z,85.60
2022-12-03T16:34:13.524Z,85.71
2022-12-03T16:36:36.235Z,85.71
2022-12-03T16:38:58.822Z,85.55
2022-12-03T16:41:22.471Z,85.73
2022-12-03T16:43:47.520Z,85.67
2022-12-03T16:46:21.122Z,85.70
2022-12-03T16:48:44.229Z,85.84
2022-12-03T16:51:07.592Z,85.75
2022-12-03T16:53:30.164Z,85.78
2022-12-03T16:55:52.909Z,85.79
2022-12-03T16:58:15.740Z,85.74
2022-12-03T17:00:38.343Z,85.76
2022-12-03T17:03:01.023Z,85.85
2022-12-03T17:05:23.648Z,86.04
2022-12-03T17:07:46.498Z,86.11
2022-12-03T17:10:09.599Z,86.23
2022-12-03T17:13:00.823Z,86.42
2022-12-03T17:15:15.130Z,86.49
2022-12-03T17:17:37.585Z,86.80
2022-12-03T17:20:00.353Z,86.96
2022-12-03T17:22:23.121Z,87.30
2022-12-03T17:24:45.939Z,87.52
2022-12-03T17:27:09.025Z,87.66
2022-12-03T17:29:32.130Z,87.77
2022-12-03T17:31:54.723Z,87.85
2022-12-03T17:34:17.508Z,88.05
2022-12-03T17:36:40.100Z,88.21
2022-12-03T17:39:03.549Z,88.37
2022-12-03T17:41:26.402Z,88.49
2022-12-03T17:43:49.635Z,88.66
2022-12-03T17:46:12.316Z,88.79
2022-12-03T17:48:35.604Z,88.83
2022-12-03T17:50:58.540Z,88.99
2022-12-03T17:53:21.410Z,89.07
2022-12-03T17:55:45.189Z,88.94
2022-12-03T17:58:08.023Z,88.95
2022-12-03T18:00:31.284Z,88.97
2022-12-03T18:02:53.905Z,88.84
2022-12-03T18:05:16.623Z,89.00
2022-12-03T18:07:41.814Z,88.93
2022-12-03T18:10:05.380Z,89.01
2022-12-03T18:12:28.091Z,89.07
2022-12-03T18:14:50.617Z,89.08
2022-12-03T18:17:14.398Z,89.08
2022-12-03T18:19:37.209Z,88.87
2022-12-03T18:21:59.923Z,88.89
2022-12-03T18:24:22.692Z,89.00
2022-12-03T18:26:45.492Z,89.03
2022-12-03T18:29:08.519Z,89.04
2022-12-03T18:31:31.533Z,89.09
2022-12-03T18:33:54.432Z,89.15
2022-12-03T18:36:25.921Z,89.21
2022-12-03T18:38:51.772Z,89.26
2022-12-03T18:41:14.480Z,89.30
2022-12-03T18:43:37.387Z,89.43
2022-12-03T18:46:00.203Z,89.31
2022-12-03T18:48:22.825Z,89.38
2022-12-03T18:50:46.658Z,89.33
2022-12-03T18:53:11.563Z,89.34
2022-12-03T18:55:35.565Z,89.34
2022-12-03T18:57:58.369Z,89.22
2022-12-03T19:00:21.255Z,89.21
2022-12-03T19:05:27.316Z,89.26
2022-12-03T19:07:51.578Z,89.37
2022-12-03T19:10:14.651Z,89.48
2022-12-03T19:12:38.341Z,89.60
2022-12-03T19:15:01.456Z,89.74
2022-12-03T19:17:24.442Z,89.74
2022-12-03T19:19:47.667Z,89.82
2022-12-03T19:22:10.628Z,89.83
2022-12-03T19:24:33.727Z,89.79
2022-12-03T19:26:56.947Z,89.90
2022-12-03T19:29:19.807Z,89.87
2022-12-03T19:31:42.435Z,89.90
2022-12-03T19:34:05.319Z,89.89
2022-12-03T19:36:30.418Z,89.90
2022-12-03T19:38:57.462Z,89.88
2022-12-03T19:41:20.189Z,89.59
2022-12-03T19:43:48.564Z,89.32
2022-12-03T19:46:12.472Z,88.93
2022-12-03T19:48:38.233Z,88.69
2022-12-03T19:51:26.626Z,88.43
2022-12-03T19:53:45.125Z,88.31
2022-12-03T19:56:16.253Z,88.35
2022-12-03T19:58:39.398Z,88.14
2022-12-03T20:01:17.045Z,87.77
2022-12-03T20:03:45.465Z,87.70
2022-12-03T20:06:08.978Z,87.43
2022-12-03T20:08:32.462Z,87.31
2022-12-03T20:10:55.653Z,87.37
2022-12-03T20:13:18.392Z,87.27
2022-12-03T20:15:41.205Z,87.12
2022-12-03T20:18:04.255Z,87.74
2022-12-03T20:20:27.096Z,87.95
2022-12-03T20:22:50.104Z,88.04
2022-12-03T20:25:13.600Z,87.77
2022-12-03T20:27:36.453Z,87.91
2022-12-03T20:29:59.568Z,87.96
2022-12-03T20:32:23.498Z,88.19
2022-12-03T20:34:46.458Z,87.94
2022-12-03T20:37:09.315Z,87.95
2022-12-03T20:39:32.184Z,87.76
2022-12-03T20:41:55.208Z,87.66
2022-12-03T20:44:17.786Z,88.01
2022-12-03T20:46:40.668Z,87.96
2022-12-03T20:49:05.125Z,87.86
2022-12-03T20:51:30.138Z,88.13
2022-12-03T20:53:53.689Z,88.38
2022-12-03T20:56:23.032Z,88.43
2022-12-03T20:58:46.789Z,88.30
2022-12-03T21:01:16.413Z,88.61
2022-12-03T21:03:39.886Z,88.56
2022-12-03T21:06:02.761Z,88.57
2022-12-03T21:08:40.553Z,88.61
2022-12-03T21:11:11.152Z,88.37
2022-12-03T21:13:33.861Z,88.47
2022-12-03T21:16:07.912Z,88.48
2022-12-03T21:18:30.796Z,88.49
2022-12-03T21:20:53.788Z,88.49
2022-12-03T21:23:16.678Z,88.45
2022-12-03T21:25:40.396Z,88.33
2022-12-03T21:28:08.600Z,88.59
2022-12-03T21:30:31.537Z,88.74
2022-12-03T21:32:54.128Z,88.67
2022-12-03T21:35:18.466Z,88.70
2022-12-03T21:37:41.075Z,88.82
2022-12-03T21:40:04.662Z,88.81
2022-12-03T21:42:36.003Z,88.67
2022-12-03T21:44:59.652Z,88.71
2022-12-03T21:47:22.457Z,88.63
2022-12-03T21:49:45.371Z,88.74
2022-12-03T21:52:07.912Z,88.80
2022-12-03T21:54:30.953Z,88.93
2022-12-03T21:56:53.616Z,89.03
2022-12-03T21:59:16.576Z,89.03
2022-12-03T22:01:44.041Z,89.12
2022-12-03T22:04:09.454Z,89.16
2022-12-03T22:06:31.953Z,89.30
2022-12-03T22:08:54.743Z,89.58
2022-12-03T22:11:23.342Z,89.79
2022-12-03T22:13:46.582Z,89.89
2022-12-03T22:16:12.256Z,89.93
2022-12-03T22:18:35.646Z,90.03
2022-12-03T22:20:58.444Z,90.10
2022-12-03T22:23:21.128Z,90.18
2022-12-03T22:25:43.728Z,90.25
2022-12-03T22:28:06.644Z,90.27
2022-12-03T22:30:29.371Z,90.22
2022-12-03T22:32:52.014Z,90.19
2022-12-03T22:35:14.587Z,90.28
2022-12-03T22:37:37.211Z,90.33
2022-12-03T22:39:59.791Z,90.29
2022-12-03T22:42:22.443Z,90.31
2022-12-03T22:44:44.933Z,90.42
2022-12-03T22:47:07.467Z,90.51
2022-12-03T22:49:30.044Z,90.60
2022-12-03T22:51:52.771Z,90.59
2022-12-03T22:54:36.019Z,90.72
2022-12-03T22:56:58.647Z,90.89
2022-12-03T22:59:21.326Z,91.00
2022-12-03T23:01:44.012Z,91.14
2022-12-03T23:04:08.133Z,91.28
2022-12-03T23:06:33.124Z,91.28
2022-12-03T23:08:56.371Z,91.24
2022-12-03T23:11:19.756Z,91.19
2022-12-03T23:13:42.691Z,91.29
2022-12-03T23:16:06.031Z,91.27
2022-12-03T23:18:28.862Z,91.22
2022-12-03T23:20:54.013Z,91.34
2022-12-03T23:23:17.007Z,91.41
2022-12-03T23:25:39.853Z,91.42
2022-12-03T23:28:02.686Z,91.46
2022-12-03T23:30:25.318Z,91.45
2022-12-03T23:32:47.965Z,91.52
2022-12-03T23:35:12.326Z,91.60
2022-12-03T23:37:35.164Z,91.85
2022-12-03T23:39:57.730Z,91.78
2022-12-03T23:42:21.439Z,91.85
2022-12-03T23:44:44.152Z,91.86
2022-12-03T23:47:06.714Z,91.74
2022-12-03T23:49:29.442Z,91.72
2022-12-03T23:51:52.297Z,91.77
2022-12-03T23:54:14.915Z,91.74
2022-12-03T23:56:37.464Z,91.76
2022-12-03T23:59:00.105Z,91.70
